sensor_id;sensor_type;location;lat;lon;timestamp;P1;durP1;ratioP1;P2;durP2;ratioP2
37157;SDS011;23050;51.776;22.638;2023-10-13T00:01:29;35.65;;;16.25;;
37157;SDS011;23050;51.776;22.638;2023-10-13T00:03:58;32.95;;;16.20;;
37157;SDS011;23050;51.776;22.638;2023-10-13T00:06:34;34.50;;;15.93;;
37157;SDS011;23050;51.776;22.638;2023-10-13T00:15:48;33.78;;;18.75;;
37157;SDS011;23050;51.776;22.638;2023-10-13T00:19:07;40.55;;;19.05;;
37157;SDS011;23050;51.776;22.638;2023-10-13T00:21:45;36.00;;;16.98;;
37157;SDS011;23050;51.776;22.638;2023-10-13T00:24:32;31.50;;;15.57;;
37157;SDS011;23050;51.776;22.638;2023-10-13T00:27:14;29.58;;;14.43;;
37157;SDS011;23050;51.776;22.638;2023-10-13T00:30:21;36.55;;;14.80;;
37157;SDS011;23050;51.776;22.638;2023-10-13T00:33:12;33.05;;;14.85;;
37157;SDS011;23050;51.776;22.638;2023-10-13T00:35:56;53.30;;;19.13;;
37157;SDS011;23050;51.776;22.638;2023-10-13T00:38:26;51.65;;;18.15;;
37157;SDS011;23050;51.776;22.638;2023-10-13T00:43:55;43.60;;;17.33;;
37157;SDS011;23050;51.776;22.638;2023-10-13T00:46:45;51.72;;;16.05;;
37157;SDS011;23050;51.776;22.638;2023-10-13T00:49:24;48.70;;;15.48;;
37157;SDS011;23050;51.776;22.638;2023-10-13T00:52:10;39.67;;;15.95;;
37157;SDS011;23050;51.776;22.638;2023-10-13T00:54:42;34.30;;;15.73;;
37157;SDS011;23050;51.776;22.638;2023-10-13T01:00:50;36.70;;;13.80;;
37157;SDS011;23050;51.776;22.638;2023-10-13T01:03:44;37.33;;;14.48;;
37157;SDS011;23050;51.776;22.638;2023-10-13T01:09:19;36.08;;;13.57;;
37157;SDS011;23050;51.776;22.638;2023-10-13T01:11:52;68.57;;;13.95;;
37157;SDS011;23050;51.776;22.638;2023-10-13T01:14:35;33.92;;;12.60;;
37157;SDS011;23050;51.776;22.638;2023-10-13T01:17:19;78.38;;;14.95;;
37157;SDS011;23050;51.776;22.638;2023-10-13T01:19:51;38.70;;;13.05;;
37157;SDS011;23050;51.776;22.638;2023-10-13T01:22:33;39.08;;;13.82;;
37157;SDS011;23050;51.776;22.638;2023-10-13T01:25:32;33.60;;;12.07;;
37157;SDS011;23050;51.776;22.638;2023-10-13T01:28:27;32.83;;;12.82;;
37157;SDS011;23050;51.776;22.638;2023-10-13T01:31:10;31.98;;;13.20;;
37157;SDS011;23050;51.776;22.638;2023-10-13T01:33:50;39.05;;;13.50;;
37157;SDS011;23050;51.776;22.638;2023-10-13T01:36:34;41.30;;;14.52;;
37157;SDS011;23050;51.776;22.638;2023-10-13T01:42:01;34.42;;;14.95;;
37157;SDS011;23050;51.776;22.638;2023-10-13T01:44:29;35.33;;;14.90;;
37157;SDS011;23050;51.776;22.638;2023-10-13T01:47:01;35.15;;;13.75;;
37157;SDS011;23050;51.776;22.638;2023-10-13T01:49:41;37.40;;;14.70;;
37157;SDS011;23050;51.776;22.638;2023-10-13T01:52:21;40.97;;;14.55;;
37157;SDS011;23050;51.776;22.638;2023-10-13T01:54:57;32.92;;;14.45;;
37157;SDS011;23050;51.776;22.638;2023-10-13T02:00:43;34.72;;;13.20;;
37157;SDS011;23050;51.776;22.638;2023-10-13T02:03:55;28.10;;;12.05;;
37157;SDS011;23050;51.776;22.638;2023-10-13T02:06:52;27.17;;;11.57;;
37157;SDS011;23050;51.776;22.638;2023-10-13T02:09:37;37.97;;;12.82;;
37157;SDS011;23050;51.776;22.638;2023-10-13T02:12:16;76.85;;;16.65;;
37157;SDS011;23050;51.776;22.638;2023-10-13T02:15:09;138.23;;;18.10;;
37157;SDS011;23050;51.776;22.638;2023-10-13T02:18:08;143.52;;;20.15;;
37157;SDS011;23050;51.776;22.638;2023-10-13T02:20:47;92.57;;;19.92;;
37157;SDS011;23050;51.776;22.638;2023-10-13T02:23:40;82.55;;;20.02;;
37157;SDS011;23050;51.776;22.638;2023-10-13T02:26:25;97.13;;;23.90;;
37157;SDS011;23050;51.776;22.638;2023-10-13T02:29:25;121.75;;;25.30;;
37157;SDS011;23050;51.776;22.638;2023-10-13T02:34:50;170.90;;;26.50;;
37157;SDS011;23050;51.776;22.638;2023-10-13T02:37:30;213.05;;;28.50;;
37157;SDS011;23050;51.776;22.638;2023-10-13T02:40:11;209.80;;;23.40;;
37157;SDS011;23050;51.776;22.638;2023-10-13T02:42:50;226.18;;;24.48;;
37157;SDS011;23050;51.776;22.638;2023-10-13T02:45:38;210.48;;;23.88;;
37157;SDS011;23050;51.776;22.638;2023-10-13T02:48:20;301.05;;;24.98;;
37157;SDS011;23050;51.776;22.638;2023-10-13T02:51:11;226.65;;;22.60;;
37157;SDS011;23050;51.776;22.638;2023-10-13T02:53:49;216.48;;;22.83;;
37157;SDS011;23050;51.776;22.638;2023-10-13T02:56:33;293.73;;;27.48;;
37157;SDS011;23050;51.776;22.638;2023-10-13T02:59:29;146.85;;;23.15;;
37157;SDS011;23050;51.776;22.638;2023-10-13T03:02:36;195.90;;;21.42;;
37157;SDS011;23050;51.776;22.638;2023-10-13T03:06:20;192.93;;;21.02;;
37157;SDS011;23050;51.776;22.638;2023-10-13T03:08:42;196.02;;;20.38;;
37157;SDS011;23050;51.776;22.638;2023-10-13T03:11:16;155.27;;;22.02;;
37157;SDS011;23050;51.776;22.638;2023-10-13T03:13:57;118.53;;;17.85;;
37157;SDS011;23050;51.776;22.638;2023-10-13T03:16:33;181.48;;;21.33;;
37157;SDS011;23050;51.776;22.638;2023-10-13T03:19:21;74.75;;;17.10;;
37157;SDS011;23050;51.776;22.638;2023-10-13T03:22:03;66.38;;;16.63;;
37157;SDS011;23050;51.776;22.638;2023-10-13T03:24:42;67.07;;;17.05;;
37157;SDS011;23050;51.776;22.638;2023-10-13T03:27:25;94.38;;;17.80;;
37157;SDS011;23050;51.776;22.638;2023-10-13T03:30:24;54.42;;;15.50;;
37157;SDS011;23050;51.776;22.638;2023-10-13T03:33:28;74.38;;;16.58;;
37157;SDS011;23050;51.776;22.638;2023-10-13T03:36:13;56.08;;;16.60;;
37157;SDS011;23050;51.776;22.638;2023-10-13T03:39:09;56.85;;;17.75;;
37157;SDS011;23050;51.776;22.638;2023-10-13T03:41:50;57.05;;;17.55;;
37157;SDS011;23050;51.776;22.638;2023-10-13T03:44:42;43.33;;;16.92;;
37157;SDS011;23050;51.776;22.638;2023-10-13T03:47:28;45.75;;;15.55;;
37157;SDS011;23050;51.776;22.638;2023-10-13T03:50:25;98.47;;;17.45;;
37157;SDS011;23050;51.776;22.638;2023-10-13T03:53:35;62.05;;;16.90;;
37157;SDS011;23050;51.776;22.638;2023-10-13T03:56:33;49.80;;;15.20;;
37157;SDS011;23050;51.776;22.638;2023-10-13T04:05:58;50.63;;;23.67;;
37157;SDS011;23050;51.776;22.638;2023-10-13T04:09:07;46.28;;;21.63;;
37157;SDS011;23050;51.776;22.638;2023-10-13T04:12:04;38.85;;;16.20;;
37157;SDS011;23050;51.776;22.638;2023-10-13T04:18:20;33.08;;;16.95;;
37157;SDS011;23050;51.776;22.638;2023-10-13T04:21:14;50.80;;;17.30;;
37157;SDS011;23050;51.776;22.638;2023-10-13T04:27:55;111.78;;;19.10;;
37157;SDS011;23050;51.776;22.638;2023-10-13T04:30:47;93.65;;;18.10;;
37157;SDS011;23050;51.776;22.638;2023-10-13T04:33:32;105.90;;;17.17;;
37157;SDS011;23050;51.776;22.638;2023-10-13T04:36:22;84.28;;;16.83;;
37157;SDS011;23050;51.776;22.638;2023-10-13T04:39:12;130.60;;;19.27;;
37157;SDS011;23050;51.776;22.638;2023-10-13T04:45:18;127.10;;;16.10;;
37157;SDS011;23050;51.776;22.638;2023-10-13T04:48:03;107.50;;;16.98;;
37157;SDS011;23050;51.776;22.638;2023-10-13T04:50:58;128.68;;;15.32;;
37157;SDS011;23050;51.776;22.638;2023-10-13T04:53:45;129.18;;;15.35;;
37157;SDS011;23050;51.776;22.638;2023-10-13T04:56:32;120.72;;;20.60;;
37157;SDS011;23050;51.776;22.638;2023-10-13T04:59:08;111.03;;;19.88;;
37157;SDS011;23050;51.776;22.638;2023-10-13T05:01:45;103.30;;;20.90;;
37157;SDS011;23050;51.776;22.638;2023-10-13T05:11:38;172.40;;;22.85;;
37157;SDS011;23050;51.776;22.638;2023-10-13T05:14:58;134.68;;;20.88;;
37157;SDS011;23050;51.776;22.638;2023-10-13T05:17:42;109.78;;;18.75;;
37157;SDS011;23050;51.776;22.638;2023-10-13T05:20:47;156.00;;;19.45;;
37157;SDS011;23050;51.776;22.638;2023-10-13T05:23:46;118.90;;;18.57;;
37157;SDS011;23050;51.776;22.638;2023-10-13T05:26:34;133.20;;;20.45;;
37157;SDS011;23050;51.776;22.638;2023-10-13T05:29:27;62.65;;;21.83;;
37157;SDS011;23050;51.776;22.638;2023-10-13T05:32:31;50.95;;;16.98;;
37157;SDS011;23050;51.776;22.638;2023-10-13T05:35:20;37.00;;;15.07;;
37157;SDS011;23050;51.776;22.638;2023-10-13T05:38:08;39.42;;;17.80;;
37157;SDS011;23050;51.776;22.638;2023-10-13T05:40:59;42.85;;;18.17;;
37157;SDS011;23050;51.776;22.638;2023-10-13T05:43:49;45.60;;;20.75;;
37157;SDS011;23050;51.776;22.638;2023-10-13T05:47:07;35.58;;;16.77;;
37157;SDS011;23050;51.776;22.638;2023-10-13T05:53:38;36.38;;;15.32;;
37157;SDS011;23050;51.776;22.638;2023-10-13T05:56:31;41.67;;;18.40;;
37157;SDS011;23050;51.776;22.638;2023-10-13T05:59:18;38.55;;;17.80;;
37157;SDS011;23050;51.776;22.638;2023-10-13T06:02:05;42.53;;;19.15;;
37157;SDS011;23050;51.776;22.638;2023-10-13T06:04:56;40.72;;;16.88;;
37157;SDS011;23050;51.776;22.638;2023-10-13T06:07:44;43.05;;;16.35;;
37157;SDS011;23050;51.776;22.638;2023-10-13T06:10:37;45.08;;;16.23;;
37157;SDS011;23050;51.776;22.638;2023-10-13T06:13:31;43.92;;;18.85;;
37157;SDS011;23050;51.776;22.638;2023-10-13T06:16:16;42.30;;;17.00;;
37157;SDS011;23050;51.776;22.638;2023-10-13T06:19:08;41.50;;;20.27;;
37157;SDS011;23050;51.776;22.638;2023-10-13T06:22:06;34.95;;;16.75;;
37157;SDS011;23050;51.776;22.638;2023-10-13T06:25:13;35.85;;;16.80;;
37157;SDS011;23050;51.776;22.638;2023-10-13T06:28:21;31.38;;;14.57;;
37157;SDS011;23050;51.776;22.638;2023-10-13T06:31:39;36.60;;;16.58;;
37157;SDS011;23050;51.776;22.638;2023-10-13T06:34:17;35.03;;;17.88;;
37157;SDS011;23050;51.776;22.638;2023-10-13T06:36:53;47.13;;;20.17;;
37157;SDS011;23050;51.776;22.638;2023-10-13T06:39:26;47.85;;;18.75;;
37157;SDS011;23050;51.776;22.638;2023-10-13T06:42:16;39.22;;;18.58;;
37157;SDS011;23050;51.776;22.638;2023-10-13T06:44:45;42.45;;;18.20;;
37157;SDS011;23050;51.776;22.638;2023-10-13T06:47:14;39.95;;;17.73;;
37157;SDS011;23050;51.776;22.638;2023-10-13T06:50:08;33.38;;;17.45;;
37157;SDS011;23050;51.776;22.638;2023-10-13T06:52:56;31.05;;;15.38;;
37157;SDS011;23050;51.776;22.638;2023-10-13T06:55:29;26.40;;;13.95;;
37157;SDS011;23050;51.776;22.638;2023-10-13T06:58:06;24.95;;;12.63;;
37157;SDS011;23050;51.776;22.638;2023-10-13T07:03:42;20.88;;;9.40;;
37157;SDS011;23050;51.776;22.638;2023-10-13T07:06:28;20.13;;;9.32;;
37157;SDS011;23050;51.776;22.638;2023-10-13T07:09:22;21.02;;;10.10;;
37157;SDS011;23050;51.776;22.638;2023-10-13T07:12:00;21.23;;;9.98;;
37157;SDS011;23050;51.776;22.638;2023-10-13T07:14:27;19.83;;;10.27;;
37157;SDS011;23050;51.776;22.638;2023-10-13T07:17:07;21.52;;;10.90;;
37157;SDS011;23050;51.776;22.638;2023-10-13T07:19:48;20.77;;;9.38;;
37157;SDS011;23050;51.776;22.638;2023-10-13T07:22:33;19.90;;;8.10;;
37157;SDS011;23050;51.776;22.638;2023-10-13T07:25:37;21.08;;;9.10;;
37157;SDS011;23050;51.776;22.638;2023-10-13T07:28:26;21.08;;;9.45;;
37157;SDS011;23050;51.776;22.638;2023-10-13T07:31:21;20.33;;;8.88;;
37157;SDS011;23050;51.776;22.638;2023-10-13T07:34:16;20.70;;;7.60;;
37157;SDS011;23050;51.776;22.638;2023-10-13T07:36:56;19.33;;;8.95;;
37157;SDS011;23050;51.776;22.638;2023-10-13T07:39:31;24.02;;;8.30;;
37157;SDS011;23050;51.776;22.638;2023-10-13T07:45:08;18.42;;;7.10;;
37157;SDS011;23050;51.776;22.638;2023-10-13T07:47:58;19.70;;;7.60;;
37157;SDS011;23050;51.776;22.638;2023-10-13T07:51:00;21.40;;;6.97;;
37157;SDS011;23050;51.776;22.638;2023-10-13T07:53:44;14.13;;;6.60;;
37157;SDS011;23050;51.776;22.638;2023-10-13T07:56:25;19.17;;;7.25;;
37157;SDS011;23050;51.776;22.638;2023-10-13T07:59:06;19.23;;;7.75;;
37157;SDS011;23050;51.776;22.638;2023-10-13T08:01:38;16.85;;;7.13;;
37157;SDS011;23050;51.776;22.638;2023-10-13T08:04:21;20.33;;;7.70;;
37157;SDS011;23050;51.776;22.638;2023-10-13T08:06:53;22.70;;;8.57;;
37157;SDS011;23050;51.776;22.638;2023-10-13T08:09:44;23.90;;;8.93;;
37157;SDS011;23050;51.776;22.638;2023-10-13T08:12:27;24.33;;;9.02;;
37157;SDS011;23050;51.776;22.638;2023-10-13T08:14:58;34.28;;;14.55;;
37157;SDS011;23050;51.776;22.638;2023-10-13T08:18:07;32.67;;;17.23;;
37157;SDS011;23050;51.776;22.638;2023-10-13T08:20:48;24.92;;;15.23;;
37157;SDS011;23050;51.776;22.638;2023-10-13T08:23:34;22.77;;;12.35;;
37157;SDS011;23050;51.776;22.638;2023-10-13T08:30:07;20.58;;;10.70;;
37157;SDS011;23050;51.776;22.638;2023-10-13T08:36:17;22.20;;;8.32;;
37157;SDS011;23050;51.776;22.638;2023-10-13T08:39:08;22.42;;;9.60;;
37157;SDS011;23050;51.776;22.638;2023-10-13T08:45:45;19.77;;;8.13;;
37157;SDS011;23050;51.776;22.638;2023-10-13T08:48:21;20.05;;;7.45;;
37157;SDS011;23050;51.776;22.638;2023-10-13T08:51:00;16.42;;;7.43;;
37157;SDS011;23050;51.776;22.638;2023-10-13T08:53:38;18.20;;;6.13;;
37157;SDS011;23050;51.776;22.638;2023-10-13T08:56:17;12.77;;;5.88;;
37157;SDS011;23050;51.776;22.638;2023-10-13T08:59:17;17.17;;;5.72;;
37157;SDS011;23050;51.776;22.638;2023-10-13T09:02:12;13.93;;;6.53;;
37157;SDS011;23050;51.776;22.638;2023-10-13T09:07:59;12.80;;;6.47;;
37157;SDS011;23050;51.776;22.638;2023-10-13T09:11:09;17.70;;;7.82;;
37157;SDS011;23050;51.776;22.638;2023-10-13T09:14:00;16.83;;;7.50;;
37157;SDS011;23050;51.776;22.638;2023-10-13T09:16:37;18.50;;;8.00;;
37157;SDS011;23050;51.776;22.638;2023-10-13T09:23:07;19.75;;;9.18;;
37157;SDS011;23050;51.776;22.638;2023-10-13T09:35:33;21.60;;;9.85;;
37157;SDS011;23050;51.776;22.638;2023-10-13T09:38:30;20.37;;;8.40;;
37157;SDS011;23050;51.776;22.638;2023-10-13T09:41:44;22.38;;;8.43;;
37157;SDS011;23050;51.776;22.638;2023-10-13T09:50:59;52.03;;;30.38;;
37157;SDS011;23050;51.776;22.638;2023-10-13T09:54:03;21.27;;;11.65;;
37157;SDS011;23050;51.776;22.638;2023-10-13T10:00:19;32.85;;;13.15;;
37157;SDS011;23050;51.776;22.638;2023-10-13T10:03:05;27.15;;;11.98;;
37157;SDS011;23050;51.776;22.638;2023-10-13T10:06:00;23.02;;;11.55;;
37157;SDS011;23050;51.776;22.638;2023-10-13T10:09:07;28.85;;;12.20;;
37157;SDS011;23050;51.776;22.638;2023-10-13T10:22:30;31.92;;;13.70;;
37157;SDS011;23050;51.776;22.638;2023-10-13T10:28:23;27.02;;;11.98;;
37157;SDS011;23050;51.776;22.638;2023-10-13T10:31:06;25.77;;;10.57;;
37157;SDS011;23050;51.776;22.638;2023-10-13T10:47:18;25.85;;;12.23;;
37157;SDS011;23050;51.776;22.638;2023-10-13T10:56:14;23.55;;;10.73;;
37157;SDS011;23050;51.776;22.638;2023-10-13T10:59:34;23.92;;;11.73;;
37157;SDS011;23050;51.776;22.638;2023-10-13T11:02:29;27.48;;;13.23;;
37157;SDS011;23050;51.776;22.638;2023-10-13T11:05:47;28.40;;;12.52;;
37157;SDS011;23050;51.776;22.638;2023-10-13T11:08:27;34.08;;;14.57;;
37157;SDS011;23050;51.776;22.638;2023-10-13T11:11:02;28.83;;;12.50;;
37157;SDS011;23050;51.776;22.638;2023-10-13T11:13:49;33.85;;;13.95;;
37157;SDS011;23050;51.776;22.638;2023-10-13T11:16:59;26.15;;;12.02;;
37157;SDS011;23050;51.776;22.638;2023-10-13T11:19:47;33.55;;;14.10;;
37157;SDS011;23050;51.776;22.638;2023-10-13T11:23:10;28.88;;;12.90;;
37157;SDS011;23050;51.776;22.638;2023-10-13T11:25:55;30.80;;;13.88;;
37157;SDS011;23050;51.776;22.638;2023-10-13T11:28:57;22.58;;;11.18;;
37157;SDS011;23050;51.776;22.638;2023-10-13T11:34:25;29.33;;;12.95;;
37157;SDS011;23050;51.776;22.638;2023-10-13T11:37:26;29.08;;;12.70;;
37157;SDS011;23050;51.776;22.638;2023-10-13T11:40:17;25.85;;;11.75;;
37157;SDS011;23050;51.776;22.638;2023-10-13T11:43:12;26.42;;;13.65;;
37157;SDS011;23050;51.776;22.638;2023-10-13T11:45:47;24.67;;;11.25;;
37157;SDS011;23050;51.776;22.638;2023-10-13T11:48:43;26.55;;;11.45;;
37157;SDS011;23050;51.776;22.638;2023-10-13T11:52:04;26.77;;;12.18;;
37157;SDS011;23050;51.776;22.638;2023-10-13T11:55:11;26.88;;;11.80;;
37157;SDS011;23050;51.776;22.638;2023-10-13T11:57:50;22.52;;;10.90;;
37157;SDS011;23050;51.776;22.638;2023-10-13T12:00:37;22.88;;;12.40;;
37157;SDS011;23050;51.776;22.638;2023-10-13T12:03:39;26.30;;;12.20;;
37157;SDS011;23050;51.776;22.638;2023-10-13T12:06:30;24.13;;;12.10;;
37157;SDS011;23050;51.776;22.638;2023-10-13T12:09:49;29.38;;;11.68;;
37157;SDS011;23050;51.776;22.638;2023-10-13T12:12:53;25.27;;;11.10;;
37157;SDS011;23050;51.776;22.638;2023-10-13T12:15:39;24.95;;;10.77;;
37157;SDS011;23050;51.776;22.638;2023-10-13T12:18:38;17.50;;;10.77;;
37157;SDS011;23050;51.776;22.638;2023-10-13T12:25:40;18.60;;;9.75;;
37157;SDS011;23050;51.776;22.638;2023-10-13T12:28:49;19.83;;;10.38;;
37157;SDS011;23050;51.776;22.638;2023-10-13T12:34:36;19.17;;;10.85;;
37157;SDS011;23050;51.776;22.638;2023-10-13T12:37:51;16.90;;;9.95;;
37157;SDS011;23050;51.776;22.638;2023-10-13T12:40:29;22.10;;;10.35;;
37157;SDS011;23050;51.776;22.638;2023-10-13T12:43:28;23.40;;;10.00;;
37157;SDS011;23050;51.776;22.638;2023-10-13T12:46:26;19.52;;;9.02;;
37157;SDS011;23050;51.776;22.638;2023-10-13T12:49:13;24.25;;;9.15;;
37157;SDS011;23050;51.776;22.638;2023-10-13T12:52:09;14.90;;;8.77;;
37157;SDS011;23050;51.776;22.638;2023-10-13T12:55:07;18.38;;;9.02;;
37157;SDS011;23050;51.776;22.638;2023-10-13T12:57:56;16.42;;;8.63;;
37157;SDS011;23050;51.776;22.638;2023-10-13T13:00:45;16.90;;;8.02;;
37157;SDS011;23050;51.776;22.638;2023-10-13T13:03:33;14.73;;;7.90;;
37157;SDS011;23050;51.776;22.638;2023-10-13T13:06:19;16.17;;;7.43;;
37157;SDS011;23050;51.776;22.638;2023-10-13T13:11:59;15.38;;;6.75;;
37157;SDS011;23050;51.776;22.638;2023-10-13T13:14:43;15.85;;;7.07;;
37157;SDS011;23050;51.776;22.638;2023-10-13T13:17:17;17.30;;;6.70;;
37157;SDS011;23050;51.776;22.638;2023-10-13T13:20:06;13.95;;;7.55;;
37157;SDS011;23050;51.776;22.638;2023-10-13T13:23:10;15.00;;;7.32;;
37157;SDS011;23050;51.776;22.638;2023-10-13T13:25:40;16.40;;;7.90;;
37157;SDS011;23050;51.776;22.638;2023-10-13T13:28:39;10.57;;;6.50;;
37157;SDS011;23050;51.776;22.638;2023-10-13T13:31:07;9.25;;;6.15;;
37157;SDS011;23050;51.776;22.638;2023-10-13T13:33:45;16.65;;;6.72;;
37157;SDS011;23050;51.776;22.638;2023-10-13T13:36:29;15.00;;;7.85;;
37157;SDS011;23050;51.776;22.638;2023-10-13T13:38:55;16.15;;;7.50;;
37157;SDS011;23050;51.776;22.638;2023-10-13T13:41:27;17.42;;;7.80;;
37157;SDS011;23050;51.776;22.638;2023-10-13T13:44:08;16.95;;;7.78;;
37157;SDS011;23050;51.776;22.638;2023-10-13T13:46:47;18.98;;;8.32;;
37157;SDS011;23050;51.776;22.638;2023-10-13T13:49:37;14.35;;;7.88;;
37157;SDS011;23050;51.776;22.638;2023-10-13T13:58:09;22.25;;;9.10;;
37157;SDS011;23050;51.776;22.638;2023-10-13T14:00:50;18.80;;;9.18;;
37157;SDS011;23050;51.776;22.638;2023-10-13T14:03:36;14.57;;;8.68;;
37157;SDS011;23050;51.776;22.638;2023-10-13T14:06:10;18.85;;;8.93;;
37157;SDS011;23050;51.776;22.638;2023-10-13T14:09:03;15.57;;;8.85;;
37157;SDS011;23050;51.776;22.638;2023-10-13T14:11:39;16.85;;;8.50;;
37157;SDS011;23050;51.776;22.638;2023-10-13T14:16:54;11.48;;;8.35;;
37157;SDS011;23050;51.776;22.638;2023-10-13T14:19:48;18.70;;;8.95;;
37157;SDS011;23050;51.776;22.638;2023-10-13T14:22:22;14.77;;;8.68;;
37157;SDS011;23050;51.776;22.638;2023-10-13T14:25:04;18.60;;;8.25;;
37157;SDS011;23050;51.776;22.638;2023-10-13T14:27:39;18.60;;;8.23;;
37157;SDS011;23050;51.776;22.638;2023-10-13T14:30:13;14.23;;;8.82;;
37157;SDS011;23050;51.776;22.638;2023-10-13T14:32:48;17.73;;;8.27;;
37157;SDS011;23050;51.776;22.638;2023-10-13T14:35:13;16.33;;;7.88;;
37157;SDS011;23050;51.776;22.638;2023-10-13T14:37:57;16.17;;;7.63;;
37157;SDS011;23050;51.776;22.638;2023-10-13T14:40:33;15.52;;;7.50;;
37157;SDS011;23050;51.776;22.638;2023-10-13T14:43:08;14.77;;;7.80;;
37157;SDS011;23050;51.776;22.638;2023-10-13T14:45:50;12.73;;;7.28;;
37157;SDS011;23050;51.776;22.638;2023-10-13T14:48:44;10.48;;;7.30;;
37157;SDS011;23050;51.776;22.638;2023-10-13T14:51:10;27.38;;;16.65;;
37157;SDS011;23050;51.776;22.638;2023-10-13T14:53:45;20.30;;;12.32;;
37157;SDS011;23050;51.776;22.638;2023-10-13T14:56:23;15.63;;;10.27;;
37157;SDS011;23050;51.776;22.638;2023-10-13T14:58:55;13.93;;;9.23;;
37157;SDS011;23050;51.776;22.638;2023-10-13T15:01:22;15.02;;;8.30;;
37157;SDS011;23050;51.776;22.638;2023-10-13T15:04:09;16.40;;;8.27;;
37157;SDS011;23050;51.776;22.638;2023-10-13T15:06:35;13.70;;;7.97;;
37157;SDS011;23050;51.776;22.638;2023-10-13T15:09:04;21.38;;;10.18;;
37157;SDS011;23050;51.776;22.638;2023-10-13T15:11:38;17.80;;;8.55;;
37157;SDS011;23050;51.776;22.638;2023-10-13T15:14:05;14.93;;;9.95;;
37157;SDS011;23050;51.776;22.638;2023-10-13T15:16:33;18.30;;;8.47;;
37157;SDS011;23050;51.776;22.638;2023-10-13T15:19:11;17.77;;;9.82;;
37157;SDS011;23050;51.776;22.638;2023-10-13T15:21:51;17.13;;;9.43;;
37157;SDS011;23050;51.776;22.638;2023-10-13T15:24:25;15.80;;;8.25;;
37157;SDS011;23050;51.776;22.638;2023-10-13T15:26:51;15.43;;;8.52;;
37157;SDS011;23050;51.776;22.638;2023-10-13T15:29:33;16.83;;;9.57;;
37157;SDS011;23050;51.776;22.638;2023-10-13T15:32:10;18.58;;;10.07;;
37157;SDS011;23050;51.776;22.638;2023-10-13T15:34:41;21.10;;;10.57;;
37157;SDS011;23050;51.776;22.638;2023-10-13T15:37:22;21.00;;;11.30;;
37157;SDS011;23050;51.776;22.638;2023-10-13T15:40:02;21.42;;;10.80;;
37157;SDS011;23050;51.776;22.638;2023-10-13T15:45:26;24.17;;;12.88;;
37157;SDS011;23050;51.776;22.638;2023-10-13T15:48:04;23.67;;;11.88;;
37157;SDS011;23050;51.776;22.638;2023-10-13T15:50:35;19.77;;;10.55;;
37157;SDS011;23050;51.776;22.638;2023-10-13T15:53:07;18.13;;;9.40;;
37157;SDS011;23050;51.776;22.638;2023-10-13T15:55:40;16.13;;;8.90;;
37157;SDS011;23050;51.776;22.638;2023-10-13T15:58:10;20.20;;;9.60;;
37157;SDS011;23050;51.776;22.638;2023-10-13T16:00:36;16.63;;;8.85;;
37157;SDS011;23050;51.776;22.638;2023-10-13T16:03:08;16.27;;;8.57;;
37157;SDS011;23050;51.776;22.638;2023-10-13T16:05:39;14.88;;;9.10;;
37157;SDS011;23050;51.776;22.638;2023-10-13T16:08:10;23.75;;;10.25;;
37157;SDS011;23050;51.776;22.638;2023-10-13T16:10:37;23.02;;;11.65;;
37157;SDS011;23050;51.776;22.638;2023-10-13T16:13:09;21.67;;;11.70;;
37157;SDS011;23050;51.776;22.638;2023-10-13T16:15:40;16.65;;;10.15;;
37157;SDS011;23050;51.776;22.638;2023-10-13T16:18:08;21.02;;;10.98;;
37157;SDS011;23050;51.776;22.638;2023-10-13T16:20:42;20.88;;;9.85;;
37157;SDS011;23050;51.776;22.638;2023-10-13T16:23:20;20.85;;;10.40;;
37157;SDS011;23050;51.776;22.638;2023-10-13T16:25:49;19.48;;;10.05;;
37157;SDS011;23050;51.776;22.638;2023-10-13T16:28:17;20.98;;;9.98;;
37157;SDS011;23050;51.776;22.638;2023-10-13T16:30:47;20.40;;;10.30;;
37157;SDS011;23050;51.776;22.638;2023-10-13T16:33:14;22.50;;;10.75;;
37157;SDS011;23050;51.776;22.638;2023-10-13T16:35:41;26.00;;;11.40;;
37157;SDS011;23050;51.776;22.638;2023-10-13T16:38:10;28.40;;;15.23;;
37157;SDS011;23050;51.776;22.638;2023-10-13T16:40:36;24.67;;;12.38;;
37157;SDS011;23050;51.776;22.638;2023-10-13T16:43:05;21.48;;;12.15;;
37157;SDS011;23050;51.776;22.638;2023-10-13T16:45:41;26.23;;;17.08;;
37157;SDS011;23050;51.776;22.638;2023-10-13T16:48:14;39.38;;;25.83;;
37157;SDS011;23050;51.776;22.638;2023-10-13T16:50:44;40.08;;;27.70;;
37157;SDS011;23050;51.776;22.638;2023-10-13T16:53:10;38.35;;;24.02;;
37157;SDS011;23050;51.776;22.638;2023-10-13T16:55:42;29.60;;;18.98;;
37157;SDS011;23050;51.776;22.638;2023-10-13T16:58:13;19.38;;;11.93;;
37157;SDS011;23050;51.776;22.638;2023-10-13T17:00:47;21.73;;;12.15;;
37157;SDS011;23050;51.776;22.638;2023-10-13T17:03:17;24.55;;;12.75;;
37157;SDS011;23050;51.776;22.638;2023-10-13T17:05:56;25.08;;;13.55;;
37157;SDS011;23050;51.776;22.638;2023-10-13T17:08:51;24.10;;;13.60;;
37157;SDS011;23050;51.776;22.638;2023-10-13T17:11:18;24.75;;;14.25;;
37157;SDS011;23050;51.776;22.638;2023-10-13T17:13:52;21.20;;;12.38;;
37157;SDS011;23050;51.776;22.638;2023-10-13T17:16:37;25.70;;;14.02;;
37157;SDS011;23050;51.776;22.638;2023-10-13T17:19:04;39.17;;;22.90;;
37157;SDS011;23050;51.776;22.638;2023-10-13T17:21:30;47.85;;;29.08;;
37157;SDS011;23050;51.776;22.638;2023-10-13T17:23:56;51.25;;;31.75;;
37157;SDS011;23050;51.776;22.638;2023-10-13T17:26:34;49.70;;;29.77;;
37157;SDS011;23050;51.776;22.638;2023-10-13T17:29:02;43.17;;;24.45;;
37157;SDS011;23050;51.776;22.638;2023-10-13T17:31:34;42.75;;;23.60;;
37157;SDS011;23050;51.776;22.638;2023-10-13T17:37:10;37.15;;;21.60;;
37157;SDS011;23050;51.776;22.638;2023-10-13T17:39:49;36.42;;;20.70;;
37157;SDS011;23050;51.776;22.638;2023-10-13T17:42:31;30.45;;;16.40;;
37157;SDS011;23050;51.776;22.638;2023-10-13T17:45:01;29.05;;;15.45;;
37157;SDS011;23050;51.776;22.638;2023-10-13T17:47:41;27.67;;;16.30;;
37157;SDS011;23050;51.776;22.638;2023-10-13T17:52:57;26.25;;;16.67;;
37157;SDS011;23050;51.776;22.638;2023-10-13T17:55:23;27.70;;;15.98;;
37157;SDS011;23050;51.776;22.638;2023-10-13T17:57:52;27.27;;;14.65;;
37157;SDS011;23050;51.776;22.638;2023-10-13T18:00:38;26.70;;;15.90;;
37157;SDS011;23050;51.776;22.638;2023-10-13T18:03:17;24.45;;;14.32;;
37157;SDS011;23050;51.776;22.638;2023-10-13T18:06:01;28.08;;;14.93;;
37157;SDS011;23050;51.776;22.638;2023-10-13T18:08:37;29.83;;;15.38;;
37157;SDS011;23050;51.776;22.638;2023-10-13T18:11:07;33.25;;;16.42;;
37157;SDS011;23050;51.776;22.638;2023-10-13T18:13:39;54.17;;;21.05;;
37157;SDS011;23050;51.776;22.638;2023-10-13T18:16:18;46.90;;;20.67;;
37157;SDS011;23050;51.776;22.638;2023-10-13T18:19:08;27.63;;;16.40;;
37157;SDS011;23050;51.776;22.638;2023-10-13T18:21:34;25.77;;;14.45;;
37157;SDS011;23050;51.776;22.638;2023-10-13T18:24:03;22.75;;;13.18;;
37157;SDS011;23050;51.776;22.638;2023-10-13T18:26:35;28.65;;;13.80;;
37157;SDS011;23050;51.776;22.638;2023-10-13T18:29:01;25.77;;;14.73;;